Time;durP1;ratioP1;P1;durP2;ratioP2;P2;SDS_P1;SDS_P2;PMS_P1;PMS_P2;Temp;Humidity;BMP_temperature;BMP_pressure;BME280_temperature;BME280_humidity;BME280_pressure;Samples;Min_cycle;Max_cycle;Signal;HPM_P1;HPM_P2
2023/12/22 00:01:11;;;;;;;52.40;26.80;;;3.30;74.50;;;;;;6279245;22;20070;-65
2023/12/22 00:03:37;;;;;;;47.65;27.08;;;3.40;74.50;;;;;;6279206;22;20023;-65
2023/12/22 00:06:03;;;;;;;52.63;28.48;;;3.40;74.10;;;;;;6279333;22;20019;-65
2023/12/22 00:08:29;;;;;;;53.60;26.23;;;3.30;74.40;;;;;;6279283;22;20004;-65
2023/12/22 00:10:55;;;;;;;56.03;29.63;;;3.40;74.60;;;;;;6279021;22;20020;-65
2023/12/22 00:13:21;;;;;;;46.53;26.83;;;3.40;74.60;;;;;;6279247;22;20381;-65
2023/12/22 00:15:47;;;;;;;55.22;30.08;;;3.40;74.60;;;;;;6279421;22;19999;-65
2023/12/22 00:18:12;;;;;;;49.28;26.10;;;3.40;74.50;;;;;;6279217;22;20014;-65
2023/12/22 00:20:38;;;;;;;57.00;29.67;;;3.40;74.40;;;;;;6279395;22;19995;-65
2023/12/22 00:23:04;;;;;;;50.70;30.85;;;3.40;74.60;;;;;;6280057;22;20019;-65
2023/12/22 00:25:30;;;;;;;52.13;28.33;;;3.50;74.80;;;;;;6281250;22;19999;-65
2023/12/22 00:27:56;;;;;;;54.33;29.73;;;3.40;74.70;;;;;;6281230;22;20010;-65
2023/12/22 00:30:24;;;;;;;51.28;27.83;;;3.50;74.20;;;;;;6281343;22;19996;-65
2023/12/22 00:32:50;;;;;;;65.68;31.35;;;3.50;74.20;;;;;;6281153;22;20439;-65
2023/12/22 00:35:16;;;;;;;59.72;32.38;;;3.50;74.60;;;;;;6281226;22;20007;-65
2023/12/22 00:37:41;;;;;;;53.42;30.20;;;3.50;74.70;;;;;;6281054;22;20004;-65
2023/12/22 00:40:09;;;;;;;51.60;28.42;;;3.60;74.60;;;;;;6281301;22;20003;-65
2023/12/22 00:42:35;;;;;;;51.50;27.98;;;3.60;74.50;;;;;;6281113;22;20000;-65
2023/12/22 00:45:01;;;;;;;49.47;28.90;;;3.60;74.50;;;;;;6281426;22;20000;-65
2023/12/22 00:47:28;;;;;;;53.25;30.77;;;3.60;74.60;;;;;;6280302;22;20050;-65
2023/12/22 00:49:54;;;;;;;49.53;27.83;;;3.60;74.60;;;;;;6281308;22;20010;-65
2023/12/22 00:52:20;;;;;;;52.75;29.40;;;3.60;74.60;;;;;;6281060;22;20071;-65
2023/12/22 00:54:46;;;;;;;55.72;29.83;;;3.60;74.60;;;;;;6281347;22;20334;-65
2023/12/22 00:57:13;;;;;;;55.63;29.63;;;3.60;74.70;;;;;;6280782;22;20268;-65
2023/12/22 00:59:45;;;;;;;45.30;25.88;;;3.60;74.80;;;;;;6280787;22;20000;-65
2023/12/22 01:02:11;;;;;;;54.22;28.25;;;3.60;74.90;;;;;;6280867;22;20390;-65
2023/12/22 01:04:36;;;;;;;53.97;30.45;;;3.70;75.00;;;;;;6281231;22;20007;-65
2023/12/22 01:07:02;;;;;;;49.53;26.38;;;3.60;74.90;;;;;;6281535;22;20004;-65
2023/12/22 01:09:28;;;;;;;51.88;28.80;;;3.70;74.80;;;;;;6280774;22;20000;-65
2023/12/22 01:11:54;;;;;;;50.55;27.65;;;3.70;75.00;;;;;;6280633;22;20015;-65
2023/12/22 01:14:20;;;;;;;48.55;27.15;;;3.70;74.90;;;;;;6280797;22;20011;-65
2023/12/22 01:16:46;;;;;;;52.40;29.40;;;3.70;74.90;;;;;;6281024;22;20065;-65
2023/12/22 01:19:12;;;;;;;45.03;24.85;;;3.80;75.30;;;;;;6281426;22;20002;-65
2023/12/22 01:21:38;;;;;;;42.92;23.20;;;3.80;75.30;;;;;;6280951;22;19996;-65
2023/12/22 01:24:04;;;;;;;51.15;26.23;;;3.80;75.20;;;;;;6280677;22;20032;-65
2023/12/22 01:26:30;;;;;;;51.15;26.20;;;3.80;75.40;;;;;;6281021;22;20090;-65
2023/12/22 01:28:56;;;;;;;50.97;27.60;;;3.90;75.30;;;;;;6280664;22;20035;-65
2023/12/22 01:31:22;;;;;;;40.83;23.48;;;3.90;75.20;;;;;;6280607;22;20012;-65
2023/12/22 01:33:47;;;;;;;43.85;24.77;;;3.90;75.10;;;;;;6280939;22;20030;-65
2023/12/22 01:36:13;;;;;;;43.60;24.95;;;3.90;75.10;;;;;;6280882;22;20008;-65
2023/12/22 01:38:39;;;;;;;44.17;23.85;;;3.90;75.00;;;;;;6280636;22;20006;-65
2023/12/22 01:41:05;;;;;;;49.13;26.63;;;3.90;75.10;;;;;;6280533;22;20063;-65
2023/12/22 01:43:31;;;;;;;52.85;27.25;;;3.90;75.00;;;;;;6281243;22;20309;-65
2023/12/22 01:45:59;;;;;;;48.25;27.10;;;3.90;74.80;;;;;;6281232;22;20000;-65
2023/12/22 01:48:26;;;;;;;46.17;25.10;;;3.90;74.40;;;;;;6279725;22;20057;-65
2023/12/22 01:50:53;;;;;;;44.33;24.40;;;3.90;74.10;;;;;;6279431;22;20008;-65
2023/12/22 01:53:20;;;;;;;39.47;21.83;;;3.90;74.40;;;;;;6280829;22;20053;-65
2023/12/22 01:55:48;;;;;;;44.03;23.77;;;3.90;74.60;;;;;;6280274;22;20134;-65
2023/12/22 01:58:14;;;;;;;48.50;25.02;;;3.90;74.60;;;;;;6280758;22;20520;-65
2023/12/22 02:00:40;;;;;;;43.63;23.60;;;3.90;74.30;;;;;;6280600;22;20003;-65
2023/12/22 02:03:06;;;;;;;43.72;22.98;;;3.90;74.40;;;;;;6280334;22;20271;-65
2023/12/22 02:05:32;;;;;;;41.28;22.70;;;3.90;74.70;;;;;;6280338;22;20342;-65
2023/12/22 02:07:58;;;;;;;41.75;23.98;;;3.90;74.80;;;;;;6280342;22;20002;-65
2023/12/22 02:10:24;;;;;;;37.28;21.58;;;3.90;74.30;;;;;;6279993;22;20016;-65
2023/12/22 02:12:50;;;;;;;46.78;27.95;;;3.90;74.40;;;;;;6280289;22;20000;-65
2023/12/22 02:15:16;;;;;;;40.75;22.52;;;3.60;74.90;;;;;;6280170;22;20078;-65
2023/12/22 02:18:01;;;;;;;43.50;24.27;;;3.60;74.90;;;;;;6280144;22;20057;-65
2023/12/22 02:20:27;;;;;;;43.83;23.85;;;3.60;75.00;;;;;;6280468;22;20004;-65
2023/12/22 02:22:53;;;;;;;46.08;25.52;;;3.70;75.10;;;;;;6280180;22;19995;-65
2023/12/22 02:25:20;;;;;;;43.28;23.80;;;3.70;75.20;;;;;;6280849;22;20291;-65
2023/12/22 02:27:52;;;;;;;42.33;23.52;;;3.70;75.30;;;;;;6280488;22;20102;-65
2023/12/22 02:30:44;;;;;;;47.42;26.65;;;3.70;75.00;;;;;;6280416;22;20003;-65
2023/12/22 02:33:12;;;;;;;46.33;24.42;;;3.80;74.90;;;;;;6280469;22;20007;-65
2023/12/22 02:35:41;;;;;;;41.90;21.58;;;3.80;75.50;;;;;;6279932;22;20004;-65
2023/12/22 02:38:08;;;;;;;41.13;23.60;;;3.80;75.80;;;;;;6279983;22;20023;-65
2023/12/22 02:40:35;;;;;;;36.60;22.02;;;3.80;75.20;;;;;;6280212;22;19999;-65
2023/12/22 02:43:06;;;;;;;35.70;20.73;;;3.80;75.30;;;;;;6280662;22;20374;-65
2023/12/22 02:45:32;;;;;;;36.65;20.85;;;3.90;75.40;;;;;;6279644;22;20000;-65
2023/12/22 02:47:58;;;;;;;47.35;24.05;;;3.90;75.30;;;;;;6279936;22;20014;-65
2023/12/22 02:50:24;;;;;;;39.08;22.75;;;3.90;75.40;;;;;;6279861;22;20409;-65
2023/12/22 02:52:50;;;;;;;42.70;23.33;;;3.90;75.50;;;;;;6280514;22;19996;-65
2023/12/22 02:55:16;;;;;;;39.90;23.48;;;3.90;75.70;;;;;;6279826;22;20007;-65
2023/12/22 02:57:42;;;;;;;39.67;21.33;;;3.90;75.60;;;;;;6280416;22;20000;-65
2023/12/22 03:00:09;;;;;;;38.50;20.25;;;4.00;75.30;;;;;;6279940;22;20045;-65
2023/12/22 03:02:35;;;;;;;41.38;21.95;;;4.00;75.30;;;;;;6280486;22;19996;-66
2023/12/22 03:05:01;;;;;;;35.95;21.42;;;4.00;75.40;;;;;;6280469;22;19996;-65
2023/12/22 03:07:27;;;;;;;38.60;20.45;;;4.00;74.90;;;;;;6279715;22;20450;-65
2023/12/22 03:09:53;;;;;;;34.65;18.67;;;4.00;75.20;;;;;;6279709;22;20083;-65
2023/12/22 03:12:19;;;;;;;36.92;20.45;;;4.00;75.20;;;;;;6280063;22;20022;-65
2023/12/22 03:14:45;;;;;;;37.28;20.45;;;4.00;75.20;;;;;;6280002;22;20000;-65
2023/12/22 03:17:11;;;;;;;37.10;20.70;;;4.00;74.90;;;;;;6279629;22;20290;-65
2023/12/22 03:19:36;;;;;;;35.20;19.90;;;4.00;75.20;;;;;;6279568;22;20004;-65
2023/12/22 03:22:03;;;;;;;34.45;19.30;;;4.10;75.20;;;;;;6279650;22;20452;-65
2023/12/22 03:24:29;;;;;;;40.45;22.35;;;4.00;75.10;;;;;;6280247;22;20023;-65
2023/12/22 03:26:55;;;;;;;36.33;20.20;;;4.00;75.10;;;;;;6279901;22;20004;-65
2023/12/22 03:29:21;;;;;;;34.88;19.23;;;4.10;75.20;;;;;;6279771;22;20085;-65
2023/12/22 03:31:47;;;;;;;36.83;21.95;;;4.10;75.10;;;;;;6280268;22;20328;-65
2023/12/22 03:34:13;;;;;;;34.83;20.80;;;4.10;75.30;;;;;;6279613;22;20008;-65
2023/12/22 03:36:39;;;;;;;35.60;20.02;;;4.10;75.20;;;;;;6279507;22;20014;-65
2023/12/22 03:39:05;;;;;;;32.05;17.83;;;4.10;75.60;;;;;;6279482;22;20342;-65
2023/12/22 03:41:31;;;;;;;36.13;20.83;;;4.10;75.40;;;;;;6279401;22;20421;-65
2023/12/22 03:43:58;;;;;;;36.05;22.00;;;4.10;75.20;;;;;;6279431;22;19995;-65
2023/12/22 03:46:24;;;;;;;34.38;18.80;;;4.10;75.20;;;;;;6279431;22;20008;-66
2023/12/22 03:48:51;;;;;;;30.58;18.08;;;4.10;74.90;;;;;;6279403;22;20294;-65
2023/12/22 03:51:17;;;;;;;35.20;21.00;;;4.10;74.70;;;;;;6279626;22;20007;-65
2023/12/22 03:53:43;;;;;;;43.30;22.17;;;4.10;75.10;;;;;;6279725;22;20007;-65
2023/12/22 03:56:10;;;;;;;36.08;20.52;;;4.10;74.80;;;;;;6279670;22;20000;-65
2023/12/22 03:58:36;;;;;;;31.92;18.38;;;4.10;74.70;;;;;;6278908;22;20000;-65
2023/12/22 04:01:03;;;;;;;37.58;21.17;;;4.00;75.00;;;;;;6278098;22;20065;-66
2023/12/22 04:03:28;;;;;;;35.80;19.90;;;4.00;75.10;;;;;;6279639;22;20029;-65
2023/12/22 04:05:54;;;;;;;35.95;19.23;;;3.90;74.90;;;;;;6279358;22;20031;-65
2023/12/22 04:08:20;;;;;;;41.47;22.42;;;3.90;75.20;;;;;;6279985;22;20035;-65
2023/12/22 04:10:47;;;;;;;33.90;18.55;;;3.90;75.20;;;;;;6279146;22;20066;-65
2023/12/22 04:13:13;;;;;;;31.63;17.77;;;3.90;75.20;;;;;;6279551;22;20071;-65
2023/12/22 04:15:39;;;;;;;35.83;20.23;;;3.90;75.50;;;;;;6279451;22;20038;-65
2023/12/22 04:18:06;;;;;;;31.70;19.95;;;4.00;75.00;;;;;;6279227;22;19995;-65
2023/12/22 04:20:32;;;;;;;33.95;18.80;;;3.90;75.20;;;;;;6277939;22;20008;-65
2023/12/22 04:22:58;;;;;;;32.75;18.60;;;3.90;75.30;;;;;;6279472;22;20024;-65
2023/12/22 04:25:25;;;;;;;36.70;21.30;;;4.00;75.40;;;;;;6279837;22;20015;-66
2023/12/22 04:27:51;;;;;;;36.17;21.48;;;4.00;75.00;;;;;;6279513;22;20082;-65
2023/12/22 04:30:17;;;;;;;34.15;20.25;;;3.90;74.60;;;;;;6279129;22;20339;-65
2023/12/22 04:32:43;;;;;;;39.80;22.23;;;3.90;74.60;;;;;;6279217;22;20053;-65
2023/12/22 04:35:09;;;;;;;38.25;21.60;;;3.80;75.00;;;;;;6279860;22;20007;-65
2023/12/22 04:37:35;;;;;;;44.03;24.15;;;3.80;74.80;;;;;;6277835;22;20004;-65
2023/12/22 04:40:02;;;;;;;45.38;24.13;;;3.70;75.10;;;;;;6279056;22;20054;-65
2023/12/22 04:42:29;;;;;;;39.83;23.05;;;3.60;75.10;;;;;;6279431;22;20007;-65
2023/12/22 04:44:55;;;;;;;46.53;24.13;;;3.60;75.40;;;;;;6279101;22;20006;-65
2023/12/22 04:47:21;;;;;;;38.05;21.55;;;3.50;75.60;;;;;;6279137;22;20040;-65
2023/12/22 04:49:47;;;;;;;40.05;22.83;;;3.50;75.70;;;;;;6279528;22;20004;-65
2023/12/22 04:52:13;;;;;;;41.92;22.45;;;3.50;75.80;;;;;;6279731;22;20000;-65
2023/12/22 04:54:39;;;;;;;40.13;21.95;;;3.50;75.70;;;;;;6279381;22;20023;-65
2023/12/22 04:57:05;;;;;;;32.65;17.95;;;3.50;75.80;;;;;;6279281;22;20035;-65
2023/12/22 04:59:31;;;;;;;32.88;19.55;;;3.60;75.70;;;;;;6279545;22;20275;-65
2023/12/22 05:01:58;;;;;;;32.97;18.35;;;3.60;75.90;;;;;;6279031;22;20294;-65
2023/12/22 05:04:24;;;;;;;35.10;18.92;;;3.70;75.60;;;;;;6279293;22;20011;-65
2023/12/22 05:06:50;;;;;;;30.77;16.63;;;3.80;75.90;;;;;;6279605;22;20443;-65
2023/12/22 05:09:16;;;;;;;23.63;14.43;;;3.80;75.60;;;;;;6279455;22;20079;-65
2023/12/22 05:11:42;;;;;;;28.00;16.30;;;3.90;75.40;;;;;;6280687;22;20016;-65
2023/12/22 05:14:10;;;;;;;26.85;15.48;;;3.90;75.30;;;;;;6280806;22;20083;-65
2023/12/22 05:16:36;;;;;;;23.90;14.75;;;3.90;74.80;;;;;;6281402;22;20016;-65
2023/12/22 05:19:02;;;;;;;25.63;14.45;;;4.00;74.70;;;;;;6281463;22;20027;-65
2023/12/22 05:21:28;;;;;;;24.35;13.32;;;4.00;74.90;;;;;;6280722;22;20076;-65
2023/12/22 05:23:54;;;;;;;24.00;13.55;;;4.00;75.00;;;;;;6281113;22;20013;-65
2023/12/22 05:26:20;;;;;;;25.92;13.68;;;4.10;75.10;;;;;;6281448;22;20398;-65
2023/12/22 05:28:49;;;;;;;25.10;13.20;;;4.20;75.50;;;;;;6281374;22;20007;-65
2023/12/22 05:31:17;;;;;;;23.75;13.27;;;4.20;75.30;;;;;;6280967;22;20035;-65
2023/12/22 05:33:43;;;;;;;24.42;13.25;;;4.30;75.00;;;;;;6280600;22;20406;-65
2023/12/22 05:36:09;;;;;;;22.63;12.48;;;4.40;74.40;;;;;;6280537;22;20000;-65
2023/12/22 05:38:38;;;;;;;25.55;14.30;;;4.40;74.70;;;;;;6280940;22;20007;-65
2023/12/22 05:41:06;;;;;;;25.77;13.60;;;4.40;73.40;;;;;;6280820;22;20004;-65
2023/12/22 05:43:33;;;;;;;20.70;11.70;;;4.40;73.90;;;;;;6280861;22;19999;-65
2023/12/22 05:45:59;;;;;;;22.98;12.75;;;4.30;74.10;;;;;;6280907;22;20071;-65
2023/12/22 05:48:27;;;;;;;29.90;15.23;;;4.40;74.30;;;;;;6281174;22;20290;-65
2023/12/22 05:50:55;;;;;;;29.23;16.63;;;4.40;74.30;;;;;;6280359;22;20003;-65
2023/12/22 05:53:21;;;;;;;29.17;17.40;;;4.40;74.20;;;;;;6280748;22;20336;-65
2023/12/22 05:55:48;;;;;;;23.08;13.80;;;4.30;72.90;;;;;;6280687;22;20382;-65
2023/12/22 05:58:14;;;;;;;27.02;14.20;;;4.20;73.70;;;;;;6280751;22;20018;-65
2023/12/22 06:00:40;;;;;;;23.58;14.10;;;4.20;73.70;;;;;;6280602;22;20003;-65
2023/12/22 06:03:06;;;;;;;22.67;13.82;;;4.20;73.90;;;;;;6281005;22;20049;-65
2023/12/22 06:05:32;;;;;;;26.67;16.17;;;4.20;74.00;;;;;;6280674;22;20329;-65
2023/12/22 06:07:58;;;;;;;43.60;21.48;;;4.10;73.80;;;;;;6280312;22;20011;-65
2023/12/22 06:10:24;;;;;;;40.67;21.05;;;4.10;74.20;;;;;;6280165;22;20493;-65
2023/12/22 06:12:50;;;;;;;32.25;18.70;;;4.10;74.50;;;;;;6280636;22;20031;-65
2023/12/22 06:15:16;;;;;;;33.15;18.67;;;4.10;73.80;;;;;;6280898;22;20404;-65
2023/12/22 06:17:42;;;;;;;30.98;17.67;;;4.10;74.00;;;;;;6280502;22;19999;-65
2023/12/22 06:20:08;;;;;;;34.15;20.15;;;4.10;74.00;;;;;;6279922;22;20004;-66
2023/12/22 06:22:35;;;;;;;36.97;19.90;;;4.10;73.80;;;;;;6280286;22;20062;-65
2023/12/22 06:25:07;;;;;;;33.15;19.60;;;4.00;73.70;;;;;;6280775;22;19996;-65
2023/12/22 06:27:33;;;;;;;34.80;19.85;;;3.90;74.00;;;;;;6280065;22;20018;-65
2023/12/22 06:29:59;;;;;;;34.95;19.33;;;3.90;74.10;;;;;;6305548;22;20121;-65
2023/12/22 06:32:25;;;;;;;39.22;21.15;;;3.90;74.10;;;;;;6342555;22;20007;-65
2023/12/22 06:34:51;;;;;;;32.92;20.08;;;3.90;74.20;;;;;;6342024;22;20026;-65
2023/12/22 06:37:17;;;;;;;34.67;21.20;;;3.90;74.20;;;;;;6342801;22;19999;-65
2023/12/22 06:39:43;;;;;;;33.47;20.52;;;3.90;73.80;;;;;;6342057;22;19994;-65
2023/12/22 06:42:12;;;;;;;39.03;23.75;;;3.90;73.90;;;;;;6342834;22;20257;-65
2023/12/22 06:44:38;;;;;;;37.75;21.85;;;3.90;74.20;;;;;;6342437;22;20055;-65
2023/12/22 06:47:05;;;;;;;42.22;21.95;;;3.90;74.20;;;;;;6275777;22;20143;-73
2023/12/22 06:49:32;;;;;;;45.50;25.55;;;3.90;74.20;;;;;;6342559;22;19998;-73
2023/12/22 06:51:58;;;;;;;38.67;22.45;;;3.80;74.10;;;;;;6342839;22;19998;-74
2023/12/22 06:54:24;;;;;;;39.33;21.70;;;3.80;74.10;;;;;;6342531;22;20399;-73
2023/12/22 06:56:49;;;;;;;42.25;21.90;;;3.80;73.20;;;;;;6342175;22;19998;-73
2023/12/22 06:59:15;;;;;;;37.78;21.17;;;3.60;73.30;;;;;;6342652;22;20010;-73
2023/12/22 07:01:41;;;;;;;41.15;22.38;;;3.60;74.00;;;;;;6342311;22;20403;-75
2023/12/22 07:04:07;;;;;;;36.97;20.48;;;3.60;74.00;;;;;;6341809;22;20377;-74
2023/12/22 07:06:34;;;;;;;34.72;21.75;;;3.50;74.10;;;;;;6342069;22;20014;-75
2023/12/22 07:09:12;;;;;;;40.10;20.55;;;3.40;74.30;;;;;;6341878;22;19999;-75
2023/12/22 07:11:38;;;;;;;34.75;21.13;;;3.40;74.20;;;;;;6341813;22;19999;-75
2023/12/22 07:14:04;;;;;;;36.58;21.00;;;3.40;74.50;;;;;;6309996;22;20019;-74
2023/12/22 07:16:34;;;;;;;39.08;21.45;;;3.30;74.60;;;;;;6342025;22;20011;-73
2023/12/22 07:19:00;;;;;;;41.08;23.02;;;3.30;75.10;;;;;;6341728;22;20055;-74
2023/12/22 07:21:27;;;;;;;36.75;21.52;;;3.30;75.10;;;;;;6341735;22;20045;-74
2023/12/22 07:23:54;;;;;;;39.42;22.90;;;3.30;75.60;;;;;;6341665;22;19998;-73
2023/12/22 07:26:21;;;;;;;35.80;22.10;;;3.30;75.50;;;;;;6342344;22;20003;-73
2023/12/22 07:28:48;;;;;;;36.72;20.50;;;3.40;75.50;;;;;;6341572;22;20396;-73
2023/12/22 07:31:14;;;;;;;36.10;20.92;;;3.40;75.80;;;;;;6341546;22;20007;-74
2023/12/22 07:33:43;;;;;;;40.80;21.38;;;3.50;75.60;;;;;;6341678;22;20009;-73
2023/12/22 07:36:09;;;;;;;39.28;22.83;;;3.50;75.80;;;;;;6314077;22;20015;-73
2023/12/22 07:38:36;;;;;;;41.88;23.38;;;3.60;76.00;;;;;;6341896;22;20006;-73
2023/12/22 07:41:02;;;;;;;39.50;22.67;;;3.70;75.40;;;;;;6341568;22;20412;-75
2023/12/22 07:43:29;;;;;;;43.50;25.05;;;3.70;75.40;;;;;;6341814;22;20002;-75
2023/12/22 07:45:55;;;;;;;46.50;25.40;;;3.70;75.80;;;;;;6341714;22;20071;-73
2023/12/22 07:48:21;;;;;;;37.90;20.48;;;3.70;76.20;;;;;;6341792;22;20392;-75
2023/12/22 07:50:47;;;;;;;40.10;22.95;;;3.80;75.80;;;;;;6342094;22;19999;-73
2023/12/22 07:53:14;;;;;;;45.53;25.25;;;3.90;75.60;;;;;;6341590;22;20070;-73
2023/12/22 07:55:40;;;;;;;49.85;27.02;;;3.90;75.90;;;;;;6342016;22;20026;-75
2023/12/22 07:58:07;;;;;;;45.53;24.98;;;3.90;75.60;;;;;;6341785;22;20331;-75
2023/12/22 08:00:33;;;;;;;43.10;24.60;;;3.90;75.80;;;;;;6341358;22;20276;-75
2023/12/22 08:03:00;;;;;;;47.47;26.85;;;3.90;75.90;;;;;;6341388;22;19999;-75
2023/12/22 08:05:27;;;;;;;44.30;24.65;;;4.00;75.70;;;;;;6341774;22;20002;-75
2023/12/22 08:07:59;;;;;;;48.97;27.85;;;4.00;75.60;;;;;;6342086;22;20052;-75
2023/12/22 08:10:27;;;;;;;58.72;29.60;;;4.10;75.80;;;;;;6342146;22;20018;-75
2023/12/22 08:12:53;;;;;;;46.17;24.13;;;4.10;75.80;;;;;;6341277;22;20413;-73
2023/12/22 08:15:19;;;;;;;41.38;24.55;;;4.20;75.90;;;;;;6341202;22;20025;-73
2023/12/22 08:17:51;;;;;;;43.33;24.10;;;4.30;76.40;;;;;;6341598;22;20017;-73
2023/12/22 08:20:21;;;;;;;44.90;21.33;;;4.50;76.50;;;;;;6341660;22;20068;-73
2023/12/22 08:22:48;;;;;;;41.72;24.73;;;4.70;76.40;;;;;;6341174;22;20022;-75
2023/12/22 08:25:15;;;;;;;43.53;22.63;;;4.90;75.80;;;;;;6341328;22;19995;-75
2023/12/22 08:27:41;;;;;;;41.33;23.20;;;5.00;75.70;;;;;;6312320;22;20030;-69
2023/12/22 08:30:11;;;;;;;37.45;19.67;;;5.20;75.90;;;;;;6341651;22;20025;-69
2023/12/22 08:32:38;;;;;;;42.13;20.85;;;5.40;75.70;;;;;;6341315;22;20021;-69
2023/12/22 08:35:13;;;;;;;40.58;22.77;;;5.50;75.50;;;;;;6314261;22;20083;-74
2023/12/22 08:37:39;;;;;;;44.17;22.60;;;5.70;74.10;;;;;;6311247;22;20428;-69
2023/12/22 08:40:05;;;;;;;38.42;20.45;;;5.90;73.80;;;;;;6338783;22;19995;-70
2023/12/22 08:42:31;;;;;;;38.08;21.98;;;6.00;74.00;;;;;;6338775;22;19994;-70
2023/12/22 08:44:57;;;;;;;35.97;19.40;;;6.20;73.50;;;;;;6340047;22;19999;-70
2023/12/22 08:47:23;;;;;;;32.85;17.95;;;6.40;73.80;;;;;;6341282;22;20027;-70
2023/12/22 08:49:49;;;;;;;34.85;20.08;;;6.50;73.70;;;;;;6341321;22;20002;-70
2023/12/22 08:52:15;;;;;;;37.90;20.60;;;6.60;73.60;;;;;;6342434;22;20011;-69
2023/12/22 08:54:41;;;;;;;43.30;24.30;;;6.80;73.10;;;;;;6343046;22;20065;-69
2023/12/22 08:57:09;;;;;;;38.83;21.00;;;7.00;71.40;;;;;;6342832;22;20048;-69
2023/12/22 08:59:34;;;;;;;38.70;21.70;;;7.10;71.40;;;;;;6343297;22;19994;-69
2023/12/22 09:02:01;;;;;;;36.70;19.98;;;7.10;71.50;;;;;;6342935;22;19995;-69
2023/12/22 09:04:26;;;;;;;31.98;18.60;;;7.30;71.60;;;;;;6315769;22;20014;-69
2023/12/22 09:06:53;;;;;;;30.25;19.05;;;7.40;72.00;;;;;;6343300;22;20002;-69
2023/12/22 09:09:21;;;;;;;35.30;19.85;;;7.50;71.80;;;;;;6315682;22;20011;-69
2023/12/22 09:11:47;;;;;;;32.90;18.45;;;7.60;70.70;;;;;;6343465;22;20007;-69
2023/12/22 09:14:13;;;;;;;33.70;18.88;;;7.80;71.40;;;;;;6343464;22;20053;-69
2023/12/22 09:16:39;;;;;;;37.92;22.67;;;7.90;71.10;;;;;;6342567;22;20392;-69
2023/12/22 09:19:06;;;;;;;36.17;20.48;;;8.00;70.70;;;;;;6343397;22;20277;-69
2023/12/22 09:21:31;;;;;;;41.20;22.52;;;8.20;69.10;;;;;;6343132;22;20057;-69
2023/12/22 09:23:58;;;;;;;36.38;21.42;;;8.30;69.60;;;;;;6342688;22;20392;-69
2023/12/22 09:26:23;;;;;;;28.67;16.92;;;8.40;68.80;;;;;;6342704;22;20006;-69
2023/12/22 09:28:49;;;;;;;31.35;17.40;;;8.50;69.30;;;;;;6343433;22;20014;-69
2023/12/22 09:31:15;;;;;;;35.85;18.50;;;8.60;69.40;;;;;;6342713;22;20003;-69
2023/12/22 09:33:42;;;;;;;31.63;18.02;;;8.70;69.10;;;;;;6315356;22;20073;-69
2023/12/22 09:36:09;;;;;;;32.78;18.75;;;8.80;69.30;;;;;;6309380;22;20101;-68
2023/12/22 09:38:36;;;;;;;29.77;16.73;;;8.90;68.70;;;;;;6343014;22;20003;-67
2023/12/22 09:41:02;;;;;;;32.28;18.17;;;9.00;68.80;;;;;;6342597;22;20090;-67
2023/12/22 09:43:28;;;;;;;30.27;17.42;;;9.10;68.30;;;;;;6342700;22;20091;-67
2023/12/22 09:45:55;;;;;;;31.85;17.23;;;9.30;67.90;;;;;;6341953;22;20078;-66
2023/12/22 09:48:28;;;;;;;31.67;17.60;;;9.40;67.70;;;;;;6314354;22;19999;-66
2023/12/22 09:50:55;;;;;;;29.50;17.40;;;9.50;67.30;;;;;;6341517;22;19999;-64
2023/12/22 09:53:22;;;;;;;27.67;16.30;;;9.50;63.80;;;;;;6342580;22;20003;-66
2023/12/22 09:55:49;;;;;;;36.40;19.00;;;9.60;65.00;;;;;;6340053;22;20168;-68
2023/12/22 09:58:16;;;;;;;34.55;18.67;;;9.70;65.10;;;;;;6342828;22;20058;-67
2023/12/22 10:00:45;;;;;;;32.78;18.60;;;9.70;62.80;;;;;;6342861;22;20006;-67
2023/12/22 10:03:12;;;;;;;29.38;16.48;;;9.80;63.80;;;;;;6342511;22;19995;-67
2023/12/22 10:05:41;;;;;;;29.30;16.67;;;9.90;64.40;;;;;;6342848;22;19995;-67
2023/12/22 10:08:11;;;;;;;29.80;17.77;;;9.90;64.60;;;;;;6342850;22;20007;-67
2023/12/22 10:10:41;;;;;;;29.33;16.58;;;10.00;64.10;;;;;;6343161;22;20006;-68
2023/12/22 10:13:12;;;;;;;31.42;17.77;;;10.10;63.60;;;;;;6342765;22;20013;-66
2023/12/22 10:15:42;;;;;;;31.65;17.30;;;10.20;63.10;;;;;;6342247;22;20052;-67
2023/12/22 10:18:09;;;;;;;31.67;17.00;;;10.20;63.70;;;;;;6342442;22;20284;-66
2023/12/22 10:20:36;;;;;;;26.48;15.27;;;10.30;63.10;;;;;;6343028;22;20003;-67
2023/12/22 10:23:02;;;;;;;28.35;16.05;;;10.40;63.80;;;;;;6342254;22;19999;-67
2023/12/22 10:25:32;;;;;;;30.58;16.23;;;10.40;64.30;;;;;;6315036;22;20006;-65
2023/12/22 10:27:59;;;;;;;27.75;17.50;;;10.50;62.70;;;;;;6342207;22;20308;-68
2023/12/22 10:30:25;;;;;;;29.42;16.65;;;10.60;62.90;;;;;;6342094;22;20270;-67
2023/12/22 10:32:52;;;;;;;29.85;17.25;;;10.60;63.30;;;;;;6342846;22;20004;-65
2023/12/22 10:35:18;;;;;;;29.60;17.17;;;10.70;63.50;;;;;;6342190;22;20300;-66
2023/12/22 10:37:46;;;;;;;31.52;17.02;;;10.80;63.30;;;;;;6342054;22;20011;-66
2023/12/22 10:40:13;;;;;;;41.78;21.38;;;10.90;64.10;;;;;;6342115;22;20023;-66
2023/12/22 10:42:41;;;;;;;33.10;17.88;;;10.90;63.20;;;;;;6342501;22;20026;-67
2023/12/22 10:45:07;;;;;;;31.48;18.02;;;11.00;64.00;;;;;;6342372;22;20057;-67
2023/12/22 10:47:33;;;;;;;26.95;17.10;;;11.10;63.80;;;;;;6342186;22;19998;-67
2023/12/22 10:50:06;;;;;;;32.63;18.92;;;11.20;63.50;;;;;;6287739;22;20019;-67
2023/12/22 10:52:32;;;;;;;34.42;19.35;;;11.30;63.20;;;;;;6342440;22;20048;-67
2023/12/22 10:54:58;;;;;;;29.50;18.15;;;11.30;61.30;;;;;;6342115;22;20010;-67
2023/12/22 10:57:27;;;;;;;30.83;17.88;;;11.40;62.20;;;;;;6342350;22;20019;-68
2023/12/22 10:59:55;;;;;;;30.55;16.55;;;11.40;62.50;;;;;;6341922;22;20002;-66
2023/12/22 11:02:23;;;;;;;32.70;19.50;;;11.50;62.00;;;;;;6342354;22;20047;-67
2023/12/22 11:04:55;;;;;;;30.65;18.13;;;11.60;62.20;;;;;;6341954;22;20430;-67
2023/12/22 11:07:24;;;;;;;33.75;19.50;;;11.60;60.40;;;;;;6341745;22;19998;-68
2023/12/22 11:09:53;;;;;;;29.40;17.33;;;11.60;61.00;;;;;;6342449;22;20283;-67
2023/12/22 11:12:20;;;;;;;34.35;18.30;;;11.60;61.80;;;;;;6342245;22;20070;-67
2023/12/22 11:14:52;;;;;;;31.02;18.15;;;11.70;61.90;;;;;;6341847;22;20018;-67
2023/12/22 11:17:22;;;;;;;30.92;19.77;;;11.80;61.50;;;;;;6341753;22;20003;-66
2023/12/22 11:19:53;;;;;;;31.73;18.75;;;11.80;61.10;;;;;;6341984;22;20030;-65
2023/12/22 11:22:20;;;;;;;35.08;18.88;;;11.90;61.00;;;;;;6342534;22;20013;-64
2023/12/22 11:24:50;;;;;;;34.50;19.92;;;11.90;60.40;;;;;;6341793;22;20007;-67
2023/12/22 11:27:18;;;;;;;37.50;21.40;;;12.00;61.30;;;;;;6342114;22;20003;-67
2023/12/22 11:29:51;;;;;;;33.75;20.95;;;12.00;58.80;;;;;;6314790;22;20081;-67
2023/12/22 11:32:18;;;;;;;34.05;19.65;;;12.00;58.90;;;;;;6342475;22;20029;-67
2023/12/22 11:34:45;;;;;;;34.58;20.23;;;12.00;59.90;;;;;;6342166;22;19998;-67
2023/12/22 11:37:18;;;;;;;34.55;20.17;;;12.00;59.30;;;;;;6341648;22;20064;-66
2023/12/22 11:39:46;;;;;;;37.53;21.35;;;12.00;60.30;;;;;;6342387;22;20021;-66
2023/12/22 11:42:19;;;;;;;33.60;20.77;;;12.10;60.70;;;;;;6341955;22;19994;-68
2023/12/22 11:44:45;;;;;;;35.17;20.52;;;12.20;59.30;;;;;;6342340;22;19995;-66
2023/12/22 11:47:13;;;;;;;33.28;19.73;;;12.20;58.40;;;;;;6341942;22;19998;-67
2023/12/22 11:49:40;;;;;;;36.90;20.50;;;12.20;59.10;;;;;;6341467;22;20006;-66
2023/12/22 11:52:17;;;;;;;36.28;20.85;;;12.20;59.50;;;;;;6342055;22;20049;-66
2023/12/22 11:54:51;;;;;;;30.10;18.15;;;12.20;60.20;;;;;;6341624;22;20086;-65
2023/12/22 11:57:32;;;;;;;;;;;12.30;60.20;;;;;;6289927;22;20094;-67
2023/12/22 12:00:21;;;;;;;32.35;19.35;;;12.30;59.10;;;;;;6342181;22;19981;-67
2023/12/22 12:02:55;;;;;;;30.67;18.38;;;12.40;59.70;;;;;;6341903;22;20026;-68
2023/12/22 12:05:21;;;;;;;27.23;16.25;;;12.40;60.10;;;;;;6341806;22;20086;-67
2023/12/22 12:07:49;;;;;;;33.28;20.27;;;12.50;60.60;;;;;;6341331;22;20013;-66
2023/12/22 12:10:33;;;;;;;30.13;18.42;;;12.50;59.40;;;;;;6341315;22;20014;-66
2023/12/22 12:13:15;;;;;;;30.75;18.42;;;12.60;59.10;;;;;;6340671;22;20006;-68
2023/12/22 12:15:42;;;;;;;35.88;19.48;;;12.60;59.00;;;;;;6342035;22;20033;-65
2023/12/22 12:18:09;;;;;;;36.00;22.05;;;12.60;58.60;;;;;;6313657;22;20022;-67
2023/12/22 12:20:35;;;;;;;36.25;20.25;;;12.60;59.50;;;;;;6343171;22;20013;-66
2023/12/22 12:23:02;;;;;;;35.80;22.33;;;12.60;59.40;;;;;;6343538;22;20132;-68
2023/12/22 12:25:33;;;;;;;31.13;18.83;;;12.60;59.90;;;;;;6343768;22;20076;-66
2023/12/22 12:28:08;;;;;;;39.33;23.17;;;12.70;60.20;;;;;;6343715;22;19999;-68
2023/12/22 12:30:36;;;;;;;37.08;20.45;;;12.70;58.90;;;;;;6343825;22;19994;-65
2023/12/22 12:33:10;;;;;;;32.70;21.17;;;12.70;59.50;;;;;;6343367;22;20094;-67
2023/12/22 12:35:37;;;;;;;;;;;12.80;59.00;;;;;;6343818;22;20002;-65